createdAt,value
2023-02-14T00:00:53.566Z,83.84
2023-02-14T00:03:20.216Z,83.87
2023-02-14T00:05:46.940Z,83.98
2023-02-14T00:08:13.947Z,83.83
2023-02-14T00:10:41.491Z,83.81
2023-02-14T00:13:08.473Z,83.67
2023-02-14T00:15:35.568Z,83.88
2023-02-14T00:18:02.975Z,84.06
2023-02-14T00:20:29.732Z,83.78
2023-02-14T00:22:56.369Z,83.83
2023-02-14T00:25:23.006Z,83.90
2023-02-14T00:27:49.581Z,84.05
2023-02-14T00:30:16.382Z,84.05
2023-02-14T00:32:43.481Z,83.97
2023-02-14T00:35:10.213Z,83.95
2023-02-14T00:37:40.881Z,83.82
2023-02-14T00:40:08.075Z,83.82
2023-02-14T00:42:34.950Z,83.96
2023-02-14T00:45:01.602Z,83.89
2023-02-14T00:47:28.691Z,84.01
2023-02-14T00:50:02.309Z,83.60
2023-02-14T00:52:30.289Z,83.73
2023-02-14T00:54:58.740Z,83.73
2023-02-14T00:57:25.618Z,83.46
2023-02-14T00:59:52.956Z,83.48
2023-02-14T01:02:21.007Z,83.46
2023-02-14T01:04:50.754Z,83.53
2023-02-14T01:07:17.422Z,83.57
2023-02-14T01:09:44.445Z,83.53
2023-02-14T01:12:11.361Z,83.75
2023-02-14T01:14:38.119Z,83.57
2023-02-14T01:17:08.013Z,83.49
2023-02-14T01:19:36.066Z,83.32
2023-02-14T01:22:02.859Z,83.50
2023-02-14T01:24:29.723Z,83.44
2023-02-14T01:26:56.342Z,83.34
2023-02-14T01:29:22.908Z,83.28
2023-02-14T01:31:52.319Z,83.04
2023-02-14T01:34:19.029Z,83.08
2023-02-14T01:36:55.684Z,83.03
2023-02-14T01:42:12.828Z,83.39
2023-02-14T01:44:39.561Z,83.33
2023-02-14T01:47:07.743Z,82.91
2023-02-14T01:49:38.435Z,82.78
2023-02-14T01:52:09.613Z,82.66
2023-02-14T01:54:42.978Z,82.46
2023-02-14T01:57:11.742Z,82.46
2023-02-14T01:59:46.158Z,82.45
2023-02-14T02:02:13.025Z,82.29
2023-02-14T02:04:44.469Z,82.07
2023-02-14T02:07:20.510Z,82.10
2023-02-14T02:09:54.735Z,82.14
2023-02-14T02:12:24.873Z,82.35
2023-02-14T02:14:52.730Z,82.04
2023-02-14T02:18:01.318Z,81.93
2023-02-14T02:21:01.008Z,81.54
2023-02-14T02:23:55.821Z,81.78
2023-02-14T02:26:48.788Z,82.04
2023-02-14T02:29:18.408Z,81.83
2023-02-14T02:32:15.444Z,81.66
2023-02-14T02:35:22.735Z,81.57
2023-02-14T02:37:58.512Z,81.59
2023-02-14T02:41:02.604Z,81.81
2023-02-14T02:43:38.436Z,81.90
2023-02-14T02:46:48.090Z,81.86
2023-02-14T02:50:02.134Z,81.68
2023-02-14T02:53:06.322Z,82.13
2023-02-14T02:55:52.863Z,82.13
2023-02-14T02:58:20.206Z,82.27
2023-02-14T03:00:46.936Z,82.05
2023-02-14T03:03:32.765Z,82.08
2023-02-14T03:06:00.370Z,82.24
2023-02-14T03:08:27.124Z,82.29
2023-02-14T03:10:54.364Z,82.68
2023-02-14T03:13:57.801Z,82.69
2023-02-14T03:17:07.435Z,82.67
2023-02-14T03:20:02.740Z,82.97
2023-02-14T03:22:58.348Z,83.19
2023-02-14T03:25:31.139Z,83.57
2023-02-14T03:28:00.661Z,84.09
2023-02-14T03:30:36.008Z,84.41
2023-02-14T03:33:13.398Z,85.04
2023-02-14T03:35:53.274Z,85.25
2023-02-14T03:38:35.945Z,85.83
2023-02-14T03:41:05.460Z,86.09
2023-02-14T03:43:37.850Z,86.32
2023-02-14T03:46:27.682Z,86.72
2023-02-14T03:48:55.419Z,87.03
2023-02-14T03:51:22.077Z,87.33
2023-02-14T03:53:51.760Z,87.59
2023-02-14T03:56:35.793Z,87.61
2023-02-14T03:59:10.008Z,87.93
2023-02-14T04:01:41.783Z,88.36
2023-02-14T04:04:08.693Z,88.55
2023-02-14T04:06:37.173Z,88.36
2023-02-14T04:09:03.943Z,88.59
2023-02-14T04:11:34.462Z,88.89
2023-02-14T04:14:02.008Z,89.27
2023-02-14T04:16:29.483Z,89.64
2023-02-14T04:19:15.295Z,89.43
2023-02-14T04:21:41.875Z,89.60
2023-02-14T04:24:08.567Z,89.81
2023-02-14T04:26:35.243Z,89.94
2023-02-14T04:29:01.862Z,89.72
2023-02-14T04:31:29.198Z,89.58
2023-02-14T04:33:55.873Z,89.67
2023-02-14T04:36:22.903Z,90.04
2023-02-14T04:38:53.260Z,90.19
2023-02-14T04:41:20.553Z,90.08
2023-02-14T04:43:47.258Z,90.01
2023-02-14T04:46:13.957Z,90.07
2023-02-14T04:48:40.585Z,90.20
2023-02-14T04:51:07.359Z,90.09
2023-02-14T04:53:39.445Z,89.98
2023-02-14T04:56:07.082Z,89.84
2023-02-14T04:58:33.835Z,90.04
2023-02-14T05:01:01.132Z,89.95
2023-02-14T05:03:28.126Z,89.68
2023-02-14T05:05:55.051Z,89.43
2023-02-14T05:08:21.749Z,89.06
2023-02-14T05:10:49.773Z,89.45
2023-02-14T05:13:17.555Z,89.46
2023-02-14T05:15:46.981Z,89.42
2023-02-14T05:18:15.336Z,89.07
2023-02-14T05:20:42.576Z,88.93
2023-02-14T05:23:13.032Z,88.82
2023-02-14T05:25:40.347Z,88.99
2023-02-14T05:28:07.199Z,88.79
2023-02-14T05:30:34.030Z,88.50
2023-02-14T05:33:02.540Z,88.45
2023-02-14T05:35:30.923Z,88.67
2023-02-14T05:37:57.841Z,88.63
2023-02-14T05:40:25.729Z,88.68
2023-02-14T05:42:53.151Z,88.46
2023-02-14T05:45:20.962Z,88.10
2023-02-14T05:47:48.086Z,87.96
2023-02-14T05:50:15.875Z,87.92
2023-02-14T05:52:43.091Z,88.00
2023-02-14T05:55:10.056Z,87.87
2023-02-14T05:57:37.399Z,87.50
2023-02-14T06:00:05.882Z,87.66
2023-02-14T06:02:39.429Z,87.80
2023-02-14T06:05:07.173Z,87.52
2023-02-14T06:07:38.501Z,87.05
2023-02-14T06:10:09.349Z,86.82
2023-02-14T06:12:36.020Z,86.87
2023-02-14T06:15:03.815Z,86.96
2023-02-14T06:17:31.014Z,86.99
2023-02-14T06:19:57.924Z,86.88
2023-02-14T06:22:30.691Z,86.59
2023-02-14T06:25:08.218Z,86.45
2023-02-14T06:27:45.153Z,86.34
2023-02-14T06:30:15.047Z,86.05
2023-02-14T06:32:42.250Z,85.75
2023-02-14T06:35:09.520Z,85.57
2023-02-14T06:37:38.453Z,85.47
2023-02-14T06:40:06.050Z,85.26
2023-02-14T06:42:33.537Z,84.83
2023-02-14T06:45:00.631Z,84.75
2023-02-14T06:47:28.903Z,84.68
2023-02-14T06:49:56.428Z,84.48
2023-02-14T06:52:23.339Z,84.23
2023-02-14T06:54:50.176Z,84.17
2023-02-14T06:57:17.616Z,83.72
2023-02-14T06:59:44.407Z,83.45
2023-02-14T07:02:11.752Z,83.50
2023-02-14T07:04:39.803Z,83.54
2023-02-14T07:07:06.961Z,83.36
2023-02-14T07:09:33.911Z,83.32
2023-02-14T07:12:02.393Z,82.46
2023-02-14T07:14:34.883Z,82.28
2023-02-14T07:17:01.717Z,81.98
2023-02-14T07:19:29.051Z,81.60
2023-02-14T07:21:56.203Z,81.06
2023-02-14T07:24:23.382Z,80.64
2023-02-14T07:26:51.223Z,80.18
2023-02-14T07:29:18.218Z,79.56
2023-02-14T07:31:45.023Z,79.52
2023-02-14T07:34:11.934Z,78.75
2023-02-14T07:36:38.856Z,78.08
2023-02-14T07:39:05.621Z,78.21
2023-02-14T07:41:32.825Z,77.63
2023-02-14T07:43:59.378Z,77.03
2023-02-14T07:46:27.096Z,77.14
2023-02-14T07:48:53.933Z,76.39
2023-02-14T07:51:20.509Z,76.38
2023-02-14T07:53:48.339Z,76.62
2023-02-14T07:56:15.678Z,76.22
2023-02-14T07:58:42.692Z,75.98
2023-02-14T08:01:10.494Z,75.65
2023-02-14T08:03:40.102Z,75.32
2023-02-14T08:06:06.848Z,75.35
2023-02-14T08:08:33.656Z,74.73
2023-02-14T08:11:01.851Z,74.74
2023-02-14T08:13:28.806Z,75.15
2023-02-14T08:16:04.881Z,74.82
2023-02-14T08:18:39.274Z,74.23
2023-02-14T08:21:07.789Z,73.81
2023-02-14T08:23:35.840Z,73.72
2023-02-14T08:26:02.585Z,73.27
2023-02-14T08:28:32.519Z,73.11
2023-02-14T08:31:00.328Z,72.84
2023-02-14T08:33:27.406Z,73.09
2023-02-14T08:35:54.206Z,72.34
2023-02-14T08:38:21.038Z,72.47
2023-02-14T08:40:47.667Z,72.58
2023-02-14T08:43:14.774Z,72.52
2023-02-14T08:45:42.854Z,71.67
2023-02-14T08:48:10.727Z,70.87
2023-02-14T08:50:38.284Z,70.95
2023-02-14T08:53:08.895Z,70.81
2023-02-14T08:55:35.569Z,70.53
2023-02-14T08:58:03.300Z,70.12
2023-02-14T09:00:31.715Z,70.28
2023-02-14T09:02:59.476Z,70.67
2023-02-14T09:05:26.085Z,71.07
2023-02-14T09:07:57.224Z,71.27
2023-02-14T09:10:28.646Z,70.06
2023-02-14T09:12:56.326Z,69.55
2023-02-14T09:15:22.948Z,69.61
2023-02-14T09:17:51.386Z,69.41
2023-02-14T09:20:18.633Z,69.27
2023-02-14T09:22:48.679Z,69.61
2023-02-14T09:25:19.508Z,69.50
2023-02-14T09:27:46.748Z,69.05
2023-02-14T09:30:14.573Z,68.61
2023-02-14T09:32:42.905Z,68.67
2023-02-14T09:35:10.627Z,68.10
2023-02-14T09:37:56.353Z,67.92
2023-02-14T09:40:25.115Z,67.87
2023-02-14T09:43:21.114Z,68.05
2023-02-14T09:45:51.550Z,68.40
2023-02-14T09:48:38.320Z,68.28
2023-02-14T09:51:13.439Z,68.28
2023-02-14T09:53:44.693Z,68.73
2023-02-14T09:56:45.981Z,68.64
2023-02-14T09:59:35.352Z,68.81
2023-02-14T10:02:23.370Z,69.40
2023-02-14T10:05:12.478Z,67.92
2023-02-14T10:07:51.231Z,67.46
2023-02-14T10:10:41.832Z,67.84
2023-02-14T10:13:34.142Z,67.44
2023-02-14T10:16:26.487Z,67.01
2023-02-14T10:18:57.912Z,66.19
2023-02-14T10:21:46.480Z,65.66
2023-02-14T10:24:19.103Z,64.88
2023-02-14T10:26:45.900Z,64.49
2023-02-14T10:29:14.516Z,64.14
2023-02-14T10:31:57.495Z,63.12
2023-02-14T10:34:26.702Z,62.40
2023-02-14T10:37:13.891Z,61.75
2023-02-14T10:40:12.943Z,61.67
2023-02-14T10:42:49.033Z,62.18
2023-02-14T10:45:35.114Z,61.18
2023-02-14T10:48:18.352Z,61.19
2023-02-14T10:51:10.380Z,60.90
2023-02-14T10:53:48.155Z,60.05
2023-02-14T10:56:44.755Z,60.14
2023-02-14T10:59:21.234Z,60.73
2023-02-14T11:01:49.557Z,60.70
2023-02-14T11:04:16.762Z,59.04
2023-02-14T11:06:45.531Z,56.34
2023-02-14T11:09:12.567Z,56.40
2023-02-14T11:11:45.398Z,55.38
2023-02-14T11:14:22.253Z,54.51
2023-02-14T11:16:53.668Z,54.97
2023-02-14T11:19:24.130Z,54.70
2023-02-14T11:21:51.352Z,55.04
2023-02-14T11:24:28.677Z,54.48
2023-02-14T11:26:58.668Z,53.29
2023-02-14T11:29:27.818Z,52.25
2023-02-14T11:31:54.860Z,52.10
2023-02-14T11:34:32.405Z,52.17
2023-02-14T11:36:59.682Z,52.67
2023-02-14T11:39:32.108Z,52.75
2023-02-14T11:42:03.996Z,53.71
2023-02-14T11:44:36.045Z,54.10
2023-02-14T11:47:26.600Z,54.22
2023-02-14T11:49:57.860Z,53.17
2023-02-14T11:52:26.148Z,53.25
2023-02-14T11:54:53.095Z,53.67
2023-02-14T11:57:25.566Z,53.44
2023-02-14T11:59:53.645Z,54.09
2023-02-14T12:02:25.040Z,54.39
2023-02-14T12:04:54.450Z,54.26
2023-02-14T12:07:29.636Z,54.38
2023-02-14T12:10:17.757Z,54.67
2023-02-14T12:12:49.348Z,54.85
2023-02-14T12:15:25.900Z,55.35
2023-02-14T12:18:26.286Z,55.45
2023-02-14T12:20:59.408Z,56.15
2023-02-14T12:23:43.396Z,56.51
2023-02-14T12:26:36.143Z,57.02
2023-02-14T12:29:34.194Z,56.99
2023-02-14T12:32:05.414Z,57.02
2023-02-14T12:34:38.969Z,57.23
2023-02-14T12:38:03.837Z,57.42
2023-02-14T12:41:01.227Z,57.57
2023-02-14T12:43:38.383Z,57.65
2023-02-14T12:46:13.104Z,57.43
2023-02-14T12:49:02.500Z,57.37
2023-02-14T12:51:38.017Z,57.61
2023-02-14T12:54:29.183Z,57.37
2023-02-14T12:57:23.862Z,57.37
2023-02-14T13:00:11.831Z,56.43
2023-02-14T13:03:03.297Z,55.45
2023-02-14T13:05:45.651Z,54.92
2023-02-14T13:08:31.232Z,55.06
2023-02-14T13:11:13.815Z,54.98
2023-02-14T13:13:55.235Z,54.28
2023-02-14T13:16:35.469Z,53.97
2023-02-14T13:19:16.354Z,52.49
2023-02-14T13:21:42.983Z,50.94
2023-02-14T13:24:14.744Z,50.24
2023-02-14T13:26:42.588Z,49.94
2023-02-14T13:29:43.665Z,49.66
2023-02-14T13:32:12.179Z,50.36
2023-02-14T13:34:42.725Z,50.61
2023-02-14T13:37:11.128Z,51.05
2023-02-14T13:39:43.602Z,51.43
2023-02-14T13:42:10.717Z,51.91
2023-02-14T13:44:41.121Z,52.15
2023-02-14T13:47:15.592Z,52.98
2023-02-14T13:49:49.647Z,53.44
2023-02-14T13:52:42.293Z,53.33
2023-02-14T13:55:14.441Z,52.65
2023-02-14T14:00:18.059Z,52.44
2023-02-14T14:02:55.495Z,52.58
2023-02-14T14:05:42.554Z,52.93
2023-02-14T14:08:26.765Z,53.32
2023-02-14T14:11:02.714Z,53.13
2023-02-14T14:13:42.427Z,53.53
2023-02-14T14:16:27.459Z,53.47
2023-02-14T14:19:02.248Z,54.19
2023-02-14T14:21:34.530Z,54.30
2023-02-14T14:24:23.592Z,54.66
2023-02-14T14:26:51.473Z,55.35
2023-02-14T14:29:48.167Z,56.19
2023-02-14T14:32:21.088Z,56.61
2023-02-14T14:34:50.366Z,57.26
2023-02-14T14:37:19.141Z,57.16
2023-02-14T14:39:53.778Z,57.40
2023-02-14T14:42:21.224Z,57.45
2023-02-14T14:44:55.883Z,57.84
2023-02-14T14:47:24.937Z,58.19
2023-02-14T14:49:58.669Z,58.12
2023-02-14T14:52:33.284Z,58.23
2023-02-14T14:55:01.727Z,58.34
2023-02-14T14:57:28.697Z,57.85
2023-02-14T15:00:19.087Z,57.85
2023-02-14T15:03:05.581Z,57.62
2023-02-14T15:05:41.135Z,57.81
2023-02-14T15:08:32.467Z,58.13
2023-02-14T15:11:05.552Z,57.86
2023-02-14T15:13:49.017Z,58.01
2023-02-14T15:16:27.808Z,58.04
2023-02-14T15:19:00.420Z,58.18
2023-02-14T15:21:27.414Z,57.81
2023-02-14T15:23:54.587Z,57.71
2023-02-14T15:26:27.713Z,57.92
2023-02-14T15:29:05.003Z,57.89
2023-02-14T15:31:39.141Z,58.16
2023-02-14T15:34:06.273Z,58.04
2023-02-14T15:36:33.671Z,58.16
2023-02-14T15:39:02.646Z,58.29
2023-02-14T15:41:29.425Z,58.22
2023-02-14T15:43:56.331Z,58.46
2023-02-14T15:46:23.663Z,58.46
2023-02-14T15:48:51.340Z,58.88
2023-02-14T15:51:26.673Z,59.11
2023-02-14T15:53:57.847Z,59.20
2023-02-14T15:56:29.011Z,59.35
2023-02-14T15:59:06.448Z,59.30
2023-02-14T16:01:34.583Z,59.53
2023-02-14T16:04:03.588Z,59.61
2023-02-14T16:06:39.886Z,59.88
2023-02-14T16:09:23.043Z,60.31
2023-02-14T16:11:50.046Z,60.53
2023-02-14T16:14:35.886Z,60.65
2023-02-14T16:17:11.283Z,60.90
2023-02-14T16:19:42.743Z,61.06
2023-02-14T16:22:12.167Z,61.27
2023-02-14T16:24:41.387Z,61.40
2023-02-14T16:27:09.032Z,61.67
2023-02-14T16:29:38.948Z,61.74
2023-02-14T16:32:23.554Z,61.57
2023-02-14T16:34:50.899Z,61.65
2023-02-14T16:37:20.705Z,61.62
2023-02-14T16:39:47.827Z,61.54
2023-02-14T16:42:16.518Z,61.37
2023-02-14T16:44:44.252Z,61.32
2023-02-14T16:47:11.941Z,61.55
2023-02-14T16:49:40.730Z,61.33
2023-02-14T16:52:26.292Z,61.27
2023-02-14T16:54:54.427Z,61.40
2023-02-14T16:57:30.131Z,61.37
2023-02-14T16:59:57.285Z,61.33
2023-02-14T17:02:27.594Z,61.42
2023-02-14T17:04:55.256Z,61.70
2023-02-14T17:07:21.991Z,61.88
2023-02-14T17:09:52.764Z,62.01
2023-02-14T17:12:21.618Z,62.25
2023-02-14T17:14:52.688Z,62.40
2023-02-14T17:17:19.296Z,62.45
2023-02-14T17:19:46.055Z,62.82
2023-02-14T17:22:13.144Z,63.03
2023-02-14T17:24:40.690Z,63.15
2023-02-14T17:27:08.110Z,63.29
2023-02-14T17:29:35.265Z,63.35
2023-02-14T17:32:01.990Z,63.84
2023-02-14T17:34:33.163Z,63.69
2023-02-14T17:37:02.341Z,64.29
2023-02-14T17:39:29.221Z,64.57
2023-02-14T17:41:59.009Z,64.91
2023-02-14T17:44:25.807Z,64.91
2023-02-14T17:46:54.117Z,65.04
2023-02-14T17:49:21.253Z,65.18
2023-02-14T17:51:48.810Z,65.46
2023-02-14T17:54:16.285Z,65.66
2023-02-14T17:56:42.991Z,65.81
2023-02-14T17:59:10.032Z,65.90
2023-02-14T18:01:40.846Z,66.20
2023-02-14T18:04:07.632Z,66.43
2023-02-14T18:06:34.902Z,66.28
2023-02-14T18:09:04.714Z,66.61
2023-02-14T18:11:33.925Z,66.68
2023-02-14T18:14:01.070Z,67.02
2023-02-14T18:16:29.152Z,67.27
2023-02-14T18:18:56.598Z,67.16
2023-02-14T18:21:28.047Z,67.18
2023-02-14T18:24:00.020Z,67.10
2023-02-14T18:26:27.096Z,66.97
2023-02-14T18:28:53.957Z,66.82
2023-02-14T18:31:22.275Z,66.82
2023-02-14T18:33:51.188Z,66.56
2023-02-14T18:36:20.809Z,66.43
2023-02-14T18:38:48.296Z,66.31
2023-02-14T18:41:17.103Z,66.39
2023-02-14T18:43:44.978Z,66.28
2023-02-14T18:46:13.741Z,66.17
2023-02-14T18:48:40.461Z,66.28
2023-02-14T18:51:11.453Z,66.41
2023-02-14T18:53:38.922Z,66.47
2023-02-14T18:56:06.762Z,66.36
2023-02-14T18:58:33.659Z,66.40
2023-02-14T19:01:14.106Z,66.41
2023-02-14T19:03:41.636Z,66.67
2023-02-14T19:06:09.083Z,66.66
2023-02-14T19:08:37.871Z,66.79
2023-02-14T19:11:16.111Z,66.86
2023-02-14T19:13:47.428Z,66.85
2023-02-14T19:16:19.561Z,66.97
2023-02-14T19:18:49.660Z,67.03
2023-02-14T19:21:19.332Z,67.08
2023-02-14T19:23:46.278Z,66.95
2023-02-14T19:26:17.702Z,66.93
2023-02-14T19:28:45.129Z,67.00
2023-02-14T19:31:12.886Z,67.06
2023-02-14T19:33:46.441Z,66.94
2023-02-14T19:36:15.641Z,66.86
2023-02-14T19:38:46.891Z,66.69
2023-02-14T19:41:16.209Z,66.68
2023-02-14T19:43:45.432Z,66.71
2023-02-14T19:46:13.357Z,66.35
2023-02-14T19:48:40.114Z,66.28
2023-02-14T19:51:07.283Z,66.13
2023-02-14T19:53:34.062Z,66.04
2023-02-14T19:56:01.036Z,65.97
2023-02-14T19:58:27.846Z,66.08
2023-02-14T20:00:59.581Z,65.90
2023-02-14T20:03:27.240Z,65.74
2023-02-14T20:05:54.643Z,65.73
2023-02-14T20:08:22.761Z,65.66
2023-02-14T20:10:53.770Z,65.64
2023-02-14T20:13:22.043Z,65.51
2023-02-14T20:15:48.769Z,65.51
2023-02-14T20:18:18.995Z,65.27
2023-02-14T20:21:03.468Z,65.12
2023-02-14T20:23:31.636Z,65.02
2023-02-14T20:25:59.027Z,64.90
2023-02-14T20:28:25.928Z,64.74
2023-02-14T20:30:52.810Z,64.80
2023-02-14T20:33:20.157Z,64.75
2023-02-14T20:35:46.771Z,64.65
2023-02-14T20:38:14.625Z,64.70
2023-02-14T20:40:42.779Z,64.64
2023-02-14T20:43:09.379Z,64.67
2023-02-14T20:45:37.628Z,64.74
2023-02-14T20:48:06.328Z,64.61
2023-02-14T20:50:34.878Z,64.72
2023-02-14T20:53:01.949Z,64.67
2023-02-14T20:55:30.616Z,64.55
2023-02-14T20:58:01.807Z,64.53
2023-02-14T21:00:29.516Z,64.63
2023-02-14T21:02:56.730Z,64.60
2023-02-14T21:05:23.615Z,64.48
2023-02-14T21:07:51.642Z,64.86
2023-02-14T21:10:19.410Z,64.77
2023-02-14T21:12:52.063Z,64.66
2023-02-14T21:15:22.205Z,64.79
2023-02-14T21:17:49.125Z,64.75
2023-02-14T21:20:19.011Z,64.67
2023-02-14T21:22:47.599Z,64.71
2023-02-14T21:25:15.079Z,64.46
2023-02-14T21:27:42.319Z,64.37
2023-02-14T21:30:11.248Z,64.54
2023-02-14T21:32:38.759Z,64.55
2023-02-14T21:35:07.516Z,64.52
2023-02-14T21:37:35.213Z,64.64
2023-02-14T21:40:02.561Z,64.54
2023-02-14T21:42:30.035Z,64.52
2023-02-14T21:45:15.917Z,64.66
2023-02-14T21:48:03.704Z,64.63
2023-02-14T21:50:30.511Z,64.51
2023-02-14T21:52:57.301Z,64.54
2023-02-14T21:55:24.233Z,64.73
2023-02-14T21:57:50.864Z,64.71
2023-02-14T22:00:18.772Z,64.56
2023-02-14T22:02:45.508Z,64.60
2023-02-14T22:05:12.660Z,64.43
2023-02-14T22:07:39.344Z,64.49
2023-02-14T22:10:06.778Z,64.54
2023-02-14T22:12:33.704Z,64.44
2023-02-14T22:15:03.746Z,64.36
2023-02-14T22:17:31.865Z,64.21
2023-02-14T22:19:59.427Z,64.09
2023-02-14T22:22:26.403Z,64.06
2023-02-14T22:24:53.133Z,64.24
2023-02-14T22:27:20.040Z,64.15
2023-02-14T22:29:46.722Z,64.07
2023-02-14T22:32:13.905Z,64.16
2023-02-14T22:34:41.020Z,63.93
2023-02-14T22:37:08.069Z,64.32
2023-02-14T22:39:34.693Z,64.14
2023-02-14T22:42:06.128Z,64.11
2023-02-14T22:44:32.819Z,64.10
2023-02-14T22:47:00.700Z,64.02
2023-02-14T22:49:27.592Z,64.14
2023-02-14T22:51:54.325Z,63.99
2023-02-14T22:54:20.985Z,63.96
2023-02-14T22:56:50.535Z,64.13
2023-02-14T22:59:18.267Z,64.27
2023-02-14T23:01:45.423Z,64.16
2023-02-14T23:04:17.132Z,64.25
2023-02-14T23:06:45.338Z,64.27
2023-02-14T23:09:12.675Z,64.29
2023-02-14T23:11:40.697Z,64.10
2023-02-14T23:14:26.523Z,64.14
2023-02-14T23:17:12.049Z,64.13
2023-02-14T23:19:57.318Z,64.36
2023-02-14T23:22:42.285Z,64.41
2023-02-14T23:25:10.147Z,64.63
2023-02-14T23:27:48.565Z,64.84
2023-02-14T23:30:16.749Z,65.43
2023-02-14T23:32:43.798Z,65.43
2023-02-14T23:35:10.509Z,65.66
2023-02-14T23:37:42.782Z,65.82
2023-02-14T23:40:13.231Z,65.88
2023-02-14T23:42:40.356Z,65.94
2023-02-14T23:45:28.391Z,66.04
2023-02-14T23:47:55.246Z,65.98
2023-02-14T23:50:22.086Z,66.05
2023-02-14T23:52:49.231Z,66.22
2023-02-14T23:55:18.548Z,66.32
2023-02-14T23:57:45.866Z,66.14
